Time;durP1;ratioP1;P1;durP2;ratioP2;P2;SDS_P1;SDS_P2;PMS_P1;PMS_P2;Temp;Humidity;BMP_temperature;BMP_pressure;BME280_temperature;BME280_humidity;BME280_pressure;Samples;Min_cycle;Max_cycle;Signal;HPM_P1;HPM_P2
2020/12/01 00:00:15;;;;;;;1.45;0.45;;;8.10;99.90;;;;;;10501242;28;20050;-50
2020/12/01 00:05:37;;;;;;;1.70;0.63;;;8.10;99.90;;;;;;10520474;28;20131;-50
2020/12/01 00:10:57;;;;;;;1.67;1.23;;;8.00;99.90;;;;;;10511957;28;20032;-50
2020/12/01 00:16:18;;;;;;;8.65;0.73;;;8.00;99.90;;;;;;10514541;28;20117;-50
2020/12/01 00:21:39;;;;;;;1.58;0.30;;;8.00;99.90;;;;;;10509692;28;20247;-50
2020/12/01 00:27:00;;;;;;;3.08;0.88;;;8.00;99.90;;;;;;10508204;28;20055;-50
2020/12/01 00:32:21;;;;;;;0.90;0.28;;;7.90;99.90;;;;;;10506655;28;20044;-50
2020/12/01 00:37:42;;;;;;;9.82;1.15;;;7.90;99.90;;;;;;10502525;28;20039;-51
2020/12/01 00:43:03;;;;;;;2.08;0.22;;;7.80;99.90;;;;;;10507240;28;20475;-50
2020/12/01 00:48:24;;;;;;;1.52;0.13;;;7.80;99.90;;;;;;10459509;28;20507;-50
2020/12/01 00:53:45;;;;;;;6.30;0.52;;;7.70;99.90;;;;;;10469829;28;20047;-50
2020/12/01 00:59:06;;;;;;;2.00;0.32;;;7.70;99.90;;;;;;10459283;28;21797;-51
2020/12/01 01:04:27;;;;;;;2.45;0.20;;;7.60;99.90;;;;;;10466505;28;20043;-51
2020/12/01 01:09:48;;;;;;;4.45;0.60;;;7.50;99.90;;;;;;10466268;28;20043;-51
2020/12/01 01:15:10;;;;;;;6.22;0.88;;;7.40;99.90;;;;;;10433281;28;20045;-51
2020/12/01 01:20:31;;;;;;;2.63;0.55;;;7.30;99.90;;;;;;10400260;28;21193;-51
2020/12/01 01:25:52;;;;;;;3.92;0.55;;;7.20;99.90;;;;;;10391484;28;20378;-51
2020/12/01 01:31:18;;;;;;;9.40;0.30;;;7.10;99.90;;;;;;10401858;28;20104;-51
2020/12/01 01:36:39;;;;;;;2.50;0.38;;;7.10;99.90;;;;;;10396624;28;20045;-51
2020/12/01 01:42:03;;;;;;;3.15;0.43;;;7.00;99.90;;;;;;10399469;28;20041;-52
2020/12/01 01:47:31;;;;;;;1.13;0.30;;;6.90;99.90;;;;;;10401032;28;20129;-52
2020/12/01 01:52:52;;;;;;;1.52;0.52;;;6.80;99.90;;;;;;10401161;28;20815;-52
2020/12/01 01:58:16;;;;;;;3.97;1.17;;;6.80;99.90;;;;;;10394486;28;20041;-52
2020/12/01 02:03:45;;;;;;;1.80;0.45;;;6.90;99.90;;;;;;10408360;28;20031;-52
2020/12/01 02:09:17;;;;;;;1.83;0.50;;;7.00;99.90;;;;;;10408776;28;20048;-52
2020/12/01 02:15:01;;;;;;;6.05;0.38;;;7.10;99.90;;;;;;10433095;28;20145;-52
2020/12/01 02:20:22;;;;;;;1.80;0.43;;;7.10;99.90;;;;;;10472856;28;20028;-52
2020/12/01 02:25:43;;;;;;;4.15;0.10;;;7.10;99.90;;;;;;10473380;28;20032;-52
2020/12/01 02:31:04;;;;;;;3.08;0.20;;;7.00;99.90;;;;;;10475017;28;20036;-52
2020/12/01 02:36:25;;;;;;;1.50;0.35;;;6.90;99.90;;;;;;10454528;28;20044;-52
2020/12/01 02:41:46;;;;;;;1.17;0.17;;;6.90;99.90;;;;;;10478213;28;20400;-52
2020/12/01 02:47:07;;;;;;;3.42;0.93;;;7.10;99.90;;;;;;10478809;28;20047;-52
2020/12/01 02:52:28;;;;;;;0.25;0.05;;;7.20;99.90;;;;;;10478285;28;20048;-52
2020/12/01 02:57:49;;;;;;;0.82;0.10;;;7.20;99.90;;;;;;10475414;28;20485;-52
2020/12/01 03:03:10;;;;;;;0.25;0.20;;;7.20;99.90;;;;;;10469107;28;20416;-52
2020/12/01 03:08:31;;;;;;;0.68;0.20;;;7.30;99.90;;;;;;10466769;28;20720;-52
2020/12/01 03:13:52;;;;;;;0.55;0.10;;;7.30;99.90;;;;;;10462501;28;20076;-53
2020/12/01 03:19:14;;;;;;;5.13;0.10;;;7.40;99.90;;;;;;10463329;28;20040;-52
2020/12/01 03:24:35;;;;;;;5.03;0.20;;;7.40;99.90;;;;;;10460785;28;20037;-52
2020/12/01 03:29:56;;;;;;;1.83;0.22;;;7.50;99.90;;;;;;10459412;28;20370;-53
2020/12/01 03:35:17;;;;;;;1.38;0.13;;;7.50;99.90;;;;;;10464237;28;20217;-53
2020/12/01 03:40:38;;;;;;;1.75;0.43;;;7.50;99.90;;;;;;10461761;28;20036;-53
2020/12/01 03:45:59;;;;;;;2.92;0.20;;;7.60;99.90;;;;;;10462113;28;20032;-52
2020/12/01 03:51:20;;;;;;;9.52;0.57;;;7.70;99.90;;;;;;10463158;28;20399;-53
2020/12/01 03:56:41;;;;;;;0.85;0.10;;;7.80;99.90;;;;;;10454386;28;20072;-53
2020/12/01 04:02:03;;;;;;;1.00;0.43;;;7.70;99.90;;;;;;10459274;28;20071;-53
2020/12/01 04:07:24;;;;;;;3.17;0.38;;;7.80;99.90;;;;;;10460273;28;20051;-53
2020/12/01 04:12:45;;;;;;;1.88;0.82;;;7.80;99.90;;;;;;10456573;28;20035;-53
2020/12/01 04:18:06;;;;;;;1.40;0.28;;;7.80;99.90;;;;;;10461119;28;20381;-52
2020/12/01 04:23:27;;;;;;;1.45;1.05;;;7.80;99.90;;;;;;10460177;28;20621;-52
2020/12/01 04:28:49;;;;;;;0.77;0.30;;;7.80;99.90;;;;;;10452012;28;20049;-53
2020/12/01 04:34:09;;;;;;;1.05;0.40;;;7.90;99.90;;;;;;10453998;28;20148;-52
2020/12/01 04:39:31;;;;;;;0.47;0.15;;;8.10;99.90;;;;;;10454150;28;20766;-51
2020/12/01 04:45:04;;;;;;;3.75;0.32;;;8.30;99.90;;;;;;10456812;28;20132;-51
2020/12/01 04:50:38;;;;;;;0.65;0.17;;;8.50;99.90;;;;;;10450691;28;20491;-52
2020/12/01 04:56:28;;;;;;;2.13;0.28;;;8.60;99.90;;;;;;10440672;28;20055;-51
2020/12/01 05:02:11;;;;;;;9.13;1.95;;;8.70;99.90;;;;;;10455145;28;20461;-52
2020/12/01 05:07:50;;;;;;;5.95;0.30;;;8.70;99.90;;;;;;10459628;28;20397;-52
2020/12/01 05:13:20;;;;;;;8.38;1.23;;;8.70;99.90;;;;;;10457190;28;20078;-52
2020/12/01 05:18:41;;;;;;;;;;;8.60;99.90;;;;;;10458687;28;20064;-52
2020/12/01 05:24:02;;;;;;;0.95;0.25;;;8.70;99.90;;;;;;10458519;28;20007;-51
2020/12/01 05:29:24;;;;;;;0.80;0.38;;;8.60;99.90;;;;;;10458049;28;20039;-51
2020/12/01 05:34:45;;;;;;;2.97;0.30;;;8.70;99.90;;;;;;10466728;28;20068;-51
2020/12/01 05:40:08;;;;;;;8.07;0.55;;;8.60;99.90;;;;;;10465533;28;20097;-51
2020/12/01 05:45:35;;;;;;;2.67;0.22;;;8.70;99.90;;;;;;10462884;28;20132;-51
2020/12/01 05:51:11;;;;;;;2.97;1.60;;;8.70;99.90;;;;;;10461261;28;20067;-50
2020/12/01 05:56:32;;;;;;;0.65;0.17;;;8.80;99.90;;;;;;10459100;28;20059;-51
2020/12/01 06:02:11;;;;;;;7.13;1.55;;;8.70;99.90;;;;;;10462247;28;20139;-51
2020/12/01 06:07:32;;;;;;;0.40;0.15;;;8.80;99.90;;;;;;10464256;28;20098;-51
2020/12/01 06:13:30;;;;;;;6.30;0.98;;;8.80;99.90;;;;;;10462393;28;20044;-51
2020/12/01 06:19:11;;;;;;;6.15;0.35;;;8.70;99.90;;;;;;10467615;28;20041;-51
2020/12/01 06:24:38;;;;;;;5.22;1.17;;;8.70;99.90;;;;;;10466254;28;20033;-51
2020/12/01 06:30:16;;;;;;;9.00;1.65;;;8.70;99.90;;;;;;10460285;28;20041;-51
2020/12/01 06:35:43;;;;;;;1.27;0.45;;;8.60;99.90;;;;;;10464763;28;20045;-51
2020/12/01 06:41:14;;;;;;;4.22;0.57;;;8.60;99.90;;;;;;10454339;28;20564;-51
2020/12/01 06:46:43;;;;;;;5.47;2.10;;;8.60;99.90;;;;;;10449767;28;20029;-51
2020/12/01 06:52:12;;;;;;;2.05;0.45;;;8.50;99.90;;;;;;10447907;28;21542;-51
2020/12/01 06:57:37;;;;;;;7.27;1.77;;;8.60;99.90;;;;;;10464430;28;20071;-51
2020/12/01 07:03:08;;;;;;;6.03;0.75;;;8.70;99.90;;;;;;10461041;28;20045;-52
2020/12/01 07:08:29;;;;;;;2.78;0.60;;;8.60;99.90;;;;;;10459093;28;20043;-51
2020/12/01 07:13:56;;;;;;;15.13;1.25;;;8.50;99.90;;;;;;10460671;28;20052;-52
2020/12/01 07:19:36;;;;;;;5.55;0.90;;;8.60;99.90;;;;;;10446370;28;20055;-52
2020/12/01 07:25:25;;;;;;;2.00;0.60;;;8.50;99.90;;;;;;10460885;28;20131;-52
2020/12/01 07:30:59;;;;;;;9.68;1.23;;;8.60;99.90;;;;;;10443103;28;20044;-52
2020/12/01 07:36:22;;;;;;;8.98;0.93;;;8.50;99.90;;;;;;10461500;28;20044;-52
2020/12/01 07:41:54;;;;;;;3.90;0.90;;;8.50;99.90;;;;;;10461533;28;20037;-52
2020/12/01 07:47:18;;;;;;;0.63;0.32;;;8.40;99.90;;;;;;10458679;28;20056;-53
2020/12/01 07:52:44;;;;;;;8.38;1.17;;;8.50;99.90;;;;;;10462382;28;20048;-52
2020/12/01 07:58:17;;;;;;;7.72;0.82;;;8.50;99.90;;;;;;10456817;28;20043;-52
2020/12/01 08:03:38;;;;;;;2.15;0.77;;;8.50;99.90;;;;;;10473781;28;20044;-53
2020/12/01 08:09:01;;;;;;;9.57;1.73;;;8.40;99.90;;;;;;10459372;28;20028;-53
2020/12/01 08:14:22;;;;;;;6.35;0.73;;;8.30;99.90;;;;;;10460002;28;20317;-53
2020/12/01 08:19:43;;;;;;;1.55;1.15;;;8.40;99.90;;;;;;10441596;28;20458;-53
2020/12/01 08:25:11;;;;;;;5.85;2.33;;;8.30;99.90;;;;;;10466188;28;20044;-52
2020/12/01 08:30:47;;;;;;;9.82;2.30;;;8.30;99.90;;;;;;10465445;28;20466;-52
2020/12/01 08:36:45;;;;;;;2.70;1.38;;;8.30;99.90;;;;;;10467946;28;20036;-53
2020/12/01 08:42:29;;;;;;;17.77;2.13;;;8.30;99.90;;;;;;10464093;28;20041;-53
2020/12/01 08:48:01;;;;;;;1.20;0.30;;;8.40;99.90;;;;;;10436042;28;20052;-52
2020/12/01 08:53:23;;;;;;;2.55;0.50;;;8.40;99.90;;;;;;10469607;28;20028;-52
2020/12/01 08:58:48;;;;;;;4.53;0.90;;;8.40;99.90;;;;;;10459522;28;20392;-52
2020/12/01 09:04:26;;;;;;;2.33;0.65;;;8.50;99.90;;;;;;10467322;28;20078;-52
2020/12/01 09:09:52;;;;;;;7.35;1.20;;;8.50;99.90;;;;;;10467091;28;20152;-53
2020/12/01 09:15:42;;;;;;;4.07;0.50;;;8.50;99.90;;;;;;10465465;28;20507;-53
2020/12/01 09:26:44;;;;;;;1.55;1.00;;;8.60;99.90;;;;;;10464355;28;20036;-53
2020/12/01 09:32:07;;;;;;;4.50;0.30;;;8.60;99.90;;;;;;10468536;28;20385;-52
2020/12/01 09:37:28;;;;;;;4.30;0.70;;;8.60;99.90;;;;;;10457768;28;20052;-52
2020/12/01 09:42:52;;;;;;;1.63;0.95;;;8.70;99.90;;;;;;10464517;28;20025;-52
2020/12/01 09:48:20;;;;;;;6.75;1.00;;;8.80;99.90;;;;;;10464036;28;20063;-52
2020/12/01 10:07:28;;;;;;;1.75;0.68;;;9.10;99.90;;;;;;10448339;28;20428;-50
2020/12/01 10:38:40;;;;;;;6.47;1.42;;;9.30;99.90;;;;;;10466276;28;20029;-50
2020/12/01 10:44:02;;;;;;;5.68;0.95;;;9.20;99.90;;;;;;10455795;28;20448;-53
2020/12/01 10:49:23;;;;;;;2.38;0.30;;;9.10;99.90;;;;;;10458638;28;20036;-52
2020/12/01 10:54:44;;;;;;;7.50;0.98;;;9.10;99.90;;;;;;10459290;28;20040;-52
2020/12/01 11:00:07;;;;;;;11.35;0.52;;;9.10;99.90;;;;;;10458961;28;20033;-52
2020/12/01 11:05:31;;;;;;;2.72;1.20;;;9.10;99.90;;;;;;10448638;28;20151;-52
2020/12/01 11:10:52;;;;;;;1.80;0.52;;;9.10;99.90;;;;;;10458473;28;20500;-52
2020/12/01 11:16:14;;;;;;;8.82;1.00;;;9.10;99.90;;;;;;10457245;28;20135;-52
2020/12/01 11:21:36;;;;;;;4.45;0.30;;;9.40;99.90;;;;;;10459391;28;20654;-52
2020/12/01 11:26:57;;;;;;;16.85;1.27;;;9.90;99.90;;;;;;10437396;28;20066;-52
2020/12/01 11:32:18;;;;;;;8.18;1.20;;;10.10;99.90;;;;;;10457860;28;20029;-52
2020/12/01 11:37:39;;;;;;;1.63;0.52;;;10.00;99.90;;;;;;10461975;28;20124;-52
2020/12/01 11:43:00;;;;;;;2.95;0.88;;;9.90;99.90;;;;;;10457146;28;20102;-52
2020/12/01 11:48:21;;;;;;;1.38;0.52;;;9.90;99.90;;;;;;10458387;28;20047;-52
2020/12/01 11:53:43;;;;;;;6.68;1.75;;;9.80;99.90;;;;;;10459137;28;20137;-53
2020/12/01 11:59:05;;;;;;;3.42;0.55;;;11.00;99.90;;;;;;10446012;28;20106;-53
2020/12/01 12:04:26;;;;;;;5.28;1.13;;;11.00;99.90;;;;;;10455147;28;20033;-52
2020/12/01 12:09:47;;;;;;;7.57;1.42;;;10.60;99.90;;;;;;10456501;28;20131;-52
2020/12/01 12:15:08;;;;;;;8.93;1.05;;;10.20;99.90;;;;;;10459916;28;20135;-52
2020/12/01 12:20:29;;;;;;;9.85;1.13;;;10.10;99.90;;;;;;10449337;28;20132;-52
2020/12/01 12:25:51;;;;;;;0.55;0.20;;;10.00;99.90;;;;;;10459124;28;20045;-52
2020/12/01 12:31:15;;;;;;;7.70;0.82;;;10.10;99.90;;;;;;10461409;28;20032;-52
2020/12/01 12:36:36;;;;;;;3.50;0.30;;;10.10;99.90;;;;;;10466211;28;20052;-52
2020/12/01 12:41:57;;;;;;;5.13;1.00;;;10.00;99.90;;;;;;10466119;28;20525;-52
2020/12/01 12:47:18;;;;;;;7.03;0.98;;;10.00;99.90;;;;;;10461132;28;20040;-52
2020/12/01 12:52:39;;;;;;;11.60;0.75;;;10.20;99.90;;;;;;10469163;28;20044;-52
2020/12/01 12:58:00;;;;;;;2.75;0.85;;;10.80;99.90;;;;;;10461046;28;20040;-53
2020/12/01 13:03:21;;;;;;;1.17;0.45;;;11.80;99.90;;;;;;10467487;28;20041;-53
2020/12/01 13:08:43;;;;;;;1.50;0.22;;;12.40;99.90;;;;;;10464448;28;20540;-53
2020/12/01 13:14:04;;;;;;;2.55;0.32;;;12.30;99.90;;;;;;10463327;28;20565;-53
2020/12/01 13:19:24;;;;;;;4.72;1.20;;;11.90;99.90;;;;;;10468621;28;20193;-53
2020/12/01 13:24:45;;;;;;;0.60;0.30;;;12.20;99.90;;;;;;10467655;28;20256;-53
2020/12/01 13:30:09;;;;;;;6.15;0.88;;;11.90;99.90;;;;;;10458207;28;20040;-53
2020/12/01 13:35:30;;;;;;;1.83;0.50;;;11.50;99.90;;;;;;10463356;28;20055;-52
2020/12/01 13:40:51;;;;;;;1.80;0.47;;;11.40;99.90;;;;;;10465656;28;20500;-53
2020/12/01 13:46:14;;;;;;;4.57;0.50;;;11.10;99.90;;;;;;10428667;28;20476;-52
2020/12/01 13:51:35;;;;;;;5.47;0.60;;;10.90;99.90;;;;;;10431333;28;20041;-52
2020/12/01 13:56:56;;;;;;;3.50;0.63;;;10.80;99.90;;;;;;10469171;28;20040;-52
2020/12/01 14:02:17;;;;;;;4.05;0.90;;;10.70;99.90;;;;;;10468340;28;20056;-53
2020/12/01 14:07:38;;;;;;;2.88;1.08;;;10.40;99.90;;;;;;10468855;28;20549;-52
2020/12/01 14:13:00;;;;;;;3.08;0.40;;;10.30;99.90;;;;;;10476211;28;20131;-52
2020/12/01 14:18:21;;;;;;;3.75;1.20;;;10.10;99.90;;;;;;10474326;28;20037;-52
2020/12/01 14:23:42;;;;;;;9.40;3.42;;;10.00;99.90;;;;;;10465133;28;20143;-52
2020/12/01 14:29:04;;;;;;;6.28;2.42;;;10.00;99.90;;;;;;10462973;28;20056;-52
2020/12/01 14:34:25;;;;;;;7.10;1.10;;;9.90;99.90;;;;;;10464236;28;20036;-52
2020/12/01 14:39:48;;;;;;;2.95;0.80;;;9.90;99.90;;;;;;10462049;28;20063;-50
2020/12/01 14:45:10;;;;;;;0.47;0.20;;;9.90;99.90;;;;;;10459047;28;20040;-52
2020/12/01 14:50:50;;;;;;;9.10;1.38;;;9.80;99.90;;;;;;10455191;28;20029;-52
2020/12/01 14:56:20;;;;;;;11.07;1.38;;;9.80;99.90;;;;;;10452937;28;20053;-53
2020/12/01 15:02:04;;;;;;;3.05;1.08;;;9.70;99.90;;;;;;10453688;28;20041;-52
2020/12/01 15:07:53;;;;;;;8.45;1.05;;;9.70;99.90;;;;;;10453873;28;20037;-52
2020/12/01 15:13:14;;;;;;;7.13;1.00;;;9.60;99.90;;;;;;10456689;28;20500;-52
2020/12/01 15:18:39;;;;;;;1.60;0.50;;;9.50;99.90;;;;;;10454281;28;20127;-50
2020/12/01 15:24:12;;;;;;;1.38;0.50;;;9.30;99.90;;;;;;10455311;28;20425;-50
2020/12/01 15:29:41;;;;;;;1.15;0.20;;;9.10;99.90;;;;;;10453882;28;20116;-50
2020/12/01 15:35:13;;;;;;;0.97;0.40;;;8.90;99.90;;;;;;10449674;28;20075;-52
2020/12/01 15:40:41;;;;;;;0.65;0.25;;;8.80;99.90;;;;;;10446743;28;20041;-52
2020/12/01 15:46:19;;;;;;;1.58;0.30;;;8.80;99.90;;;;;;10456338;28;20060;-52
2020/12/01 15:51:53;;;;;;;8.18;0.30;;;8.80;99.90;;;;;;10447347;28;20052;-52
2020/12/01 15:57:29;;;;;;;4.70;0.25;;;8.70;99.90;;;;;;10450260;28;20489;-52
2020/12/01 16:03:00;;;;;;;0.20;0.10;;;8.70;99.90;;;;;;10454470;28;20616;-51
2020/12/01 16:08:51;;;;;;;0.32;0.10;;;8.70;99.90;;;;;;10453022;28;20028;-50
2020/12/01 16:14:36;;;;;;;1.73;0.17;;;8.70;99.90;;;;;;10455644;28;21072;-50
2020/12/01 16:20:08;;;;;;;0.63;0.10;;;8.60;99.90;;;;;;10456558;28;20044;-53
2020/12/01 16:25:30;;;;;;;6.20;0.30;;;8.70;99.90;;;;;;10449698;28;20043;-51
2020/12/01 16:30:51;;;;;;;0.10;0.03;;;8.70;99.90;;;;;;10452443;28;20044;-50
2020/12/01 16:36:14;;;;;;;0.60;0.22;;;8.70;99.90;;;;;;10450497;28;20139;-50
2020/12/01 16:41:36;;;;;;;1.08;0.38;;;8.70;99.90;;;;;;10449046;28;20043;-50
2020/12/01 16:46:57;;;;;;;4.60;0.10;;;8.70;99.90;;;;;;10457273;28;20033;-50
2020/12/01 16:52:24;;;;;;;0.50;0.28;;;8.60;99.90;;;;;;10456978;28;20083;-50
2020/12/01 16:58:14;;;;;;;0.35;0.10;;;8.60;99.90;;;;;;10455482;28;20044;-50
2020/12/01 17:04:22;;;;;;;0.93;0.30;;;8.60;99.90;;;;;;10449728;28;20032;-50
2020/12/01 17:09:50;;;;;;;2.15;0.40;;;8.60;99.90;;;;;;10451838;28;20094;-52
2020/12/01 17:15:26;;;;;;;0.68;0.25;;;8.60;99.90;;;;;;10446813;28;20521;-53
2020/12/01 17:20:47;;;;;;;0.43;0.10;;;8.50;99.90;;;;;;10452555;28;20048;-53
2020/12/01 17:26:15;;;;;;;0.73;0.20;;;8.40;99.90;;;;;;10444599;28;20407;-50
2020/12/01 17:31:43;;;;;;;0.93;0.30;;;8.40;99.90;;;;;;10446668;28;20098;-51
2020/12/01 17:37:14;;;;;;;3.08;0.50;;;8.30;99.90;;;;;;10445729;28;20041;-51
2020/12/01 17:42:49;;;;;;;1.40;0.65;;;8.40;99.90;;;;;;10440856;28;20041;-51
2020/12/01 17:48:37;;;;;;;1.17;0.20;;;8.40;99.90;;;;;;10435927;28;20055;-51
2020/12/01 17:54:19;;;;;;;2.28;0.20;;;8.30;99.90;;;;;;10445206;28;20377;-51
2020/12/01 17:59:41;;;;;;;2.13;0.35;;;8.40;99.90;;;;;;10445582;28;20743;-51
2020/12/01 18:05:11;;;;;;;0.70;0.10;;;8.30;99.90;;;;;;10443553;28;20032;-51
2020/12/01 18:10:32;;;;;;;4.18;0.60;;;8.30;99.90;;;;;;10441031;28;20047;-51
2020/12/01 18:16:17;;;;;;;2.75;0.30;;;8.40;99.90;;;;;;10436621;28;20063;-51
2020/12/01 18:21:42;;;;;;;0.73;0.22;;;8.40;99.90;;;;;;10438318;28;20327;-51
2020/12/01 18:27:21;;;;;;;2.00;0.32;;;8.40;99.90;;;;;;10437989;28;20377;-51
2020/12/01 18:33:12;;;;;;;0.90;0.27;;;8.30;99.90;;;;;;10435524;28;20064;-50
2020/12/01 18:38:36;;;;;;;1.65;0.65;;;8.30;99.90;;;;;;10435787;28;20115;-51
2020/12/01 18:44:30;;;;;;;0.63;0.40;;;8.30;99.90;;;;;;10445890;28;20071;-50
2020/12/01 18:49:51;;;;;;;0.77;0.35;;;8.40;99.90;;;;;;10419262;28;20033;-50
2020/12/01 18:55:13;;;;;;;0.65;0.35;;;8.30;99.90;;;;;;10440790;28;20102;-50
2020/12/01 19:00:34;;;;;;;0.57;0.20;;;8.30;99.90;;;;;;10445665;28;20045;-50
2020/12/01 19:05:55;;;;;;;0.73;0.30;;;8.30;99.90;;;;;;10444681;28;20242;-51
2020/12/01 19:11:16;;;;;;;1.63;0.60;;;8.30;99.90;;;;;;10437609;28;20033;-50
2020/12/01 19:16:37;;;;;;;1.08;0.40;;;8.30;99.90;;;;;;10447880;28;20229;-50
2020/12/01 19:21:58;;;;;;;0.80;0.30;;;8.20;99.90;;;;;;10447285;28;20523;-50
2020/12/01 19:27:19;;;;;;;3.42;0.40;;;8.20;99.90;;;;;;10449064;28;20059;-50
2020/12/01 19:32:40;;;;;;;1.48;0.30;;;8.20;99.90;;;;;;10444898;28;20163;-50
2020/12/01 19:38:03;;;;;;;2.15;0.52;;;8.20;99.90;;;;;;10421546;28;20061;-50
2020/12/01 19:43:24;;;;;;;0.80;0.20;;;8.10;99.90;;;;;;10459999;28;20086;-50
2020/12/01 19:48:46;;;;;;;1.20;0.38;;;8.00;99.90;;;;;;10460063;28;20056;-50
2020/12/01 19:54:07;;;;;;;2.88;1.02;;;8.10;99.90;;;;;;10463189;28;20044;-50
2020/12/01 19:59:28;;;;;;;3.47;0.30;;;8.10;99.90;;;;;;10446930;28;20045;-50
2020/12/01 20:04:49;;;;;;;6.85;0.45;;;8.10;99.90;;;;;;10446573;28;20037;-50
2020/12/01 20:10:11;;;;;;;3.10;0.90;;;8.00;99.90;;;;;;10445584;28;20041;-50
2020/12/01 20:15:32;;;;;;;2.65;0.50;;;8.10;99.90;;;;;;10447170;28;20044;-50
2020/12/01 20:20:53;;;;;;;3.70;0.50;;;8.00;99.90;;;;;;10449003;28;20048;-50
2020/12/01 20:26:15;;;;;;;2.30;0.68;;;8.00;99.90;;;;;;10443161;28;20036;-50
2020/12/01 20:31:37;;;;;;;1.33;0.38;;;7.90;99.90;;;;;;10457253;28;20120;-50
2020/12/01 20:37:18;;;;;;;1.15;0.60;;;7.90;99.90;;;;;;10455377;28;20181;-50
2020/12/01 20:42:39;;;;;;;1.83;0.68;;;8.00;99.90;;;;;;10452239;28;20036;-50
2020/12/01 20:48:00;;;;;;;3.22;0.88;;;7.90;99.90;;;;;;10456495;28;20499;-50
2020/12/01 20:53:21;;;;;;;1.67;0.60;;;7.90;99.90;;;;;;10447860;28;20071;-50
2020/12/01 20:58:42;;;;;;;2.47;1.00;;;7.80;99.90;;;;;;10455333;28;20036;-50
2020/12/01 21:04:03;;;;;;;3.03;1.88;;;7.80;99.90;;;;;;10450076;28;20032;-50
2020/12/01 21:09:25;;;;;;;2.97;1.25;;;7.70;99.90;;;;;;10444062;28;20093;-50
2020/12/01 21:14:47;;;;;;;4.88;1.80;;;7.70;99.90;;;;;;10442108;28;20060;-50
2020/12/01 21:20:08;;;;;;;21.15;2.17;;;7.60;99.90;;;;;;10449700;28;20780;-50
2020/12/01 21:25:29;;;;;;;3.03;0.90;;;7.60;99.90;;;;;;10447972;28;20050;-51
2020/12/01 21:31:08;;;;;;;6.40;1.13;;;7.60;99.90;;;;;;10450576;28;20047;-50
2020/12/01 21:36:29;;;;;;;2.63;1.00;;;7.60;99.90;;;;;;10444336;28;20059;-50
2020/12/01 21:42:12;;;;;;;1.63;0.70;;;7.70;99.90;;;;;;10447916;28;20047;-50
2020/12/01 21:47:33;;;;;;;4.85;1.13;;;7.70;99.90;;;;;;10449250;28;20471;-51
2020/12/01 21:53:31;;;;;;;3.45;1.48;;;7.60;99.90;;;;;;10455685;28;20032;-50
2020/12/01 21:59:11;;;;;;;3.90;1.05;;;7.60;99.90;;;;;;10441620;28;20239;-50
2020/12/01 22:04:38;;;;;;;;;;;7.60;99.90;;;;;;10445392;28;20037;-50
2020/12/01 22:10:34;;;;;;;3.85;1.45;;;7.60;99.90;;;;;;10428779;28;20002;-53
2020/12/01 22:16:04;;;;;;;4.15;1.20;;;7.60;99.90;;;;;;10457117;28;20127;-52
2020/12/01 22:21:25;;;;;;;3.33;1.42;;;7.60;99.90;;;;;;10464339;28;20446;-53
2020/12/01 22:26:52;;;;;;;4.30;1.23;;;7.60;99.90;;;;;;10464740;28;20039;-53
2020/12/01 22:32:27;;;;;;;4.10;1.65;;;7.60;99.90;;;;;;10433333;28;20124;-53
2020/12/01 22:37:54;;;;;;;2.78;1.15;;;7.70;99.90;;;;;;10457667;28;20726;-53
2020/12/01 22:43:20;;;;;;;5.28;2.17;;;7.70;99.90;;;;;;10451522;28;20041;-53
2020/12/01 22:48:55;;;;;;;3.42;1.23;;;7.60;99.90;;;;;;10458133;28;20048;-53
2020/12/01 22:54:30;;;;;;;4.15;1.05;;;7.60;99.90;;;;;;10456178;28;20037;-53
2020/12/01 22:59:52;;;;;;;2.65;0.85;;;7.60;99.90;;;;;;10456302;28;20041;-53
2020/12/01 23:05:13;;;;;;;7.00;1.85;;;7.60;99.90;;;;;;10452795;28;20036;-53
2020/12/01 23:10:38;;;;;;;3.42;1.17;;;7.60;99.90;;;;;;10461486;28;20044;-53
2020/12/01 23:16:06;;;;;;;3.30;1.50;;;7.50;99.90;;;;;;10455859;28;20052;-53
2020/12/01 23:21:38;;;;;;;2.65;0.98;;;7.50;99.90;;;;;;10457054;28;20518;-53
2020/12/01 23:27:04;;;;;;;4.72;1.88;;;7.40;99.90;;;;;;10453218;28;20048;-53
2020/12/01 23:32:27;;;;;;;3.75;1.40;;;7.40;99.90;;;;;;10449622;28;20052;-53
2020/12/01 23:37:52;;;;;;;6.18;2.15;;;7.30;99.90;;;;;;10450286;28;20063;-53
2020/12/01 23:43:32;;;;;;;5.38;1.67;;;7.30;99.90;;;;;;10436164;28;20040;-53
2020/12/01 23:48:59;;;;;;;6.38;1.98;;;7.30;99.90;;;;;;10451474;28;20029;-53
2020/12/01 23:54:20;;;;;;;6.32;1.33;;;7.30;99.90;;;;;;10455517;28;23026;-53
2020/12/01 23:59:41;;;;;;;3.53;1.10;;;7.30;99.90;;;;;;10460190;28;20036;-53
